createdAt,value
2023-03-02T00:04:34.955Z,101549.25
2023-03-02T00:09:38.314Z,101540.59
2023-03-02T00:14:40.844Z,101544.97
2023-03-02T00:19:45.082Z,101545.72
2023-03-02T00:24:47.925Z,101543.31
2023-03-02T00:29:50.574Z,101540.19
2023-03-02T00:34:55.311Z,101532.13
2023-03-02T00:39:58.116Z,101540.28
2023-03-02T00:45:04.121Z,101533.09
2023-03-02T00:50:07.011Z,101531.81
2023-03-02T00:55:09.833Z,101525.28
2023-03-02T01:00:12.659Z,101527.34
2023-03-02T01:05:54.651Z,101526.81
2023-03-02T01:12:11.232Z,101529.84
2023-03-02T01:18:24.858Z,101534.53
2023-03-02T01:23:29.433Z,101528.47
2023-03-02T01:28:31.826Z,101536.31
2023-03-02T01:33:34.428Z,101531.28
2023-03-02T01:38:36.948Z,101542.78
2023-03-02T01:43:39.824Z,101553.25
2023-03-02T01:48:42.444Z,101549.47
2023-03-02T01:53:49.163Z,101546.88
2023-03-02T01:58:57.092Z,101547.81
2023-03-02T02:04:02.011Z,101549.69
2023-03-02T02:09:08.719Z,101533.28
2023-03-02T02:14:12.133Z,101540.28
2023-03-02T02:20:10.765Z,101535.72
2023-03-02T02:26:27.461Z,101556.88
2023-03-02T02:32:07.084Z,101560.53
2023-03-02T02:37:33.558Z,101567.66
2023-03-02T02:42:42.697Z,101538.63
2023-03-02T02:47:45.412Z,101559.19
2023-03-02T02:52:56.198Z,101555.22
2023-03-02T02:58:01.492Z,101548.63
2023-03-02T03:03:29.493Z,101556.47
2023-03-02T03:08:46.879Z,101556.59
2023-03-02T03:13:56.811Z,101572.00
2023-03-02T03:19:05.905Z,101578.94
2023-03-02T03:24:08.730Z,101575.00
2023-03-02T03:29:12.947Z,101577.81
2023-03-02T03:34:15.533Z,101590.16
2023-03-02T03:39:19.182Z,101596.63
2023-03-02T03:44:25.255Z,101599.44
2023-03-02T03:49:28.714Z,101612.50
2023-03-02T03:54:31.953Z,101596.72
2023-03-02T03:59:35.095Z,101589.88
2023-03-02T04:04:39.335Z,101595.53
2023-03-02T04:09:49.110Z,101598.31
2023-03-02T04:14:52.210Z,101600.97
2023-03-02T04:19:55.235Z,101601.25
2023-03-02T04:24:58.055Z,101607.19
2023-03-02T04:30:00.907Z,101603.53
2023-03-02T04:35:06.689Z,101605.41
2023-03-02T04:40:10.536Z,101609.75
2023-03-02T04:45:16.855Z,101620.22
2023-03-02T04:50:19.481Z,101611.91
2023-03-02T04:55:24.786Z,101618.00
2023-03-02T05:00:29.190Z,101605.28
2023-03-02T05:05:33.133Z,101620.75
2023-03-02T05:10:35.693Z,101619.56
2023-03-02T05:15:41.687Z,101621.41
2023-03-02T05:20:44.545Z,101615.00
2023-03-02T05:25:47.041Z,101621.84
2023-03-02T05:30:49.811Z,101620.09
2023-03-02T05:35:52.388Z,101621.66
2023-03-02T05:40:54.935Z,101609.38
2023-03-02T05:46:01.028Z,101616.00
2023-03-02T05:51:04.105Z,101619.25
2023-03-02T05:56:07.899Z,101625.16
2023-03-02T06:01:14.841Z,101623.31
2023-03-02T06:06:19.093Z,101616.69
2023-03-02T06:11:21.637Z,101622.63
2023-03-02T06:16:27.385Z,101613.44
2023-03-02T06:21:30.029Z,101606.44
2023-03-02T06:26:32.670Z,101622.94
2023-03-02T06:31:35.823Z,101617.94
2023-03-02T06:36:39.090Z,101619.03
2023-03-02T06:41:46.301Z,101627.63
2023-03-02T06:46:48.866Z,101618.34
2023-03-02T06:51:51.457Z,101626.56
2023-03-02T06:56:53.994Z,101615.78
2023-03-02T07:01:56.481Z,101611.66
2023-03-02T07:07:01.204Z,101606.81
2023-03-02T07:12:04.039Z,101603.50
2023-03-02T07:17:06.824Z,101607.78
2023-03-02T07:22:09.576Z,101597.56
2023-03-02T07:27:12.558Z,101609.03
2023-03-02T07:32:15.370Z,101607.91
2023-03-02T07:37:17.992Z,101608.84
2023-03-02T07:42:21.867Z,101613.66
2023-03-02T07:47:28.591Z,101592.19
2023-03-02T07:52:34.788Z,101588.81
2023-03-02T07:57:37.792Z,101498.88
2023-03-02T08:02:42.032Z,101590.75
2023-03-02T08:07:47.304Z,101600.56
2023-03-02T08:42:52.543Z,101584.41
2023-03-02T08:53:15.907Z,101576.25
2023-03-02T08:58:20.075Z,101573.66
2023-03-02T09:03:24.320Z,101551.25
2023-03-02T09:08:27.157Z,101562.63
2023-03-02T09:13:29.659Z,101571.03
2023-03-02T09:18:32.683Z,101554.69
2023-03-02T09:23:36.880Z,101536.13
2023-03-02T09:28:40.108Z,101525.97
2023-03-02T09:33:42.772Z,101528.72
2023-03-02T09:38:45.353Z,101532.59
2023-03-02T09:44:02.734Z,101530.75
2023-03-02T09:49:17.108Z,101542.34
2023-03-02T09:54:26.518Z,101526.19
2023-03-02T09:59:40.514Z,101526.00
2023-03-02T10:04:50.527Z,101517.81
2023-03-02T10:09:53.577Z,101512.31
2023-03-02T10:15:28.116Z,101523.13
2023-03-02T10:20:51.773Z,101515.09
2023-03-02T10:26:18.984Z,101517.78
2023-03-02T10:31:34.128Z,101541.66
2023-03-02T10:36:40.736Z,101530.25
2023-03-02T10:41:59.353Z,101520.25
2023-03-02T10:47:02.012Z,101536.75
2023-03-02T10:52:19.914Z,101558.13
2023-03-02T10:57:30.375Z,101545.72
2023-03-02T11:02:37.624Z,101538.81
2023-03-02T11:07:40.189Z,101552.66
2023-03-02T11:12:49.623Z,101554.28
2023-03-02T11:18:34.968Z,101550.81
2023-03-02T11:23:56.472Z,101545.88
2023-03-02T11:29:04.149Z,101557.38
2023-03-02T11:34:23.844Z,101585.47
2023-03-02T11:39:41.162Z,101576.63
2023-03-02T11:45:15.328Z,101557.94
2023-03-02T11:50:18.073Z,101575.22
2023-03-02T11:55:26.964Z,101576.38
2023-03-02T12:00:43.314Z,101559.03
2023-03-02T12:06:15.501Z,101571.47
2023-03-02T12:11:18.269Z,101593.97
2023-03-02T12:16:38.292Z,101579.91
2023-03-02T12:21:44.014Z,101583.78
2023-03-02T12:26:46.517Z,101568.13
2023-03-02T12:31:57.191Z,101569.53
2023-03-02T12:37:06.401Z,101590.16
2023-03-02T12:42:44.399Z,101578.63
2023-03-02T12:47:52.142Z,101582.63
2023-03-02T12:53:02.314Z,101575.91
2023-03-02T12:58:15.584Z,101564.84
2023-03-02T13:03:18.991Z,101561.22
2023-03-02T13:08:28.965Z,101562.00
2023-03-02T13:13:45.518Z,101563.81
2023-03-02T13:18:50.192Z,101568.19
2023-03-02T13:23:53.054Z,101566.88
2023-03-02T13:29:27.398Z,101567.78
2023-03-02T13:34:34.267Z,101564.59
2023-03-02T13:39:37.539Z,101568.47
2023-03-02T13:44:40.162Z,101579.56
2023-03-02T13:49:42.691Z,101572.38
2023-03-02T13:54:47.546Z,101572.41
2023-03-02T13:59:50.239Z,101574.94
2023-03-02T14:04:53.730Z,101599.47
2023-03-02T14:09:57.596Z,101603.66
2023-03-02T14:15:04.310Z,101585.38
2023-03-02T14:20:15.244Z,101576.63
2023-03-02T14:25:18.083Z,101581.06
2023-03-02T14:30:21.312Z,101578.56
2023-03-02T14:35:25.800Z,101579.97
2023-03-02T14:40:28.774Z,101588.25
2023-03-02T14:45:34.032Z,101579.63
2023-03-02T14:50:41.392Z,101578.53
2023-03-02T14:55:44.476Z,101590.44
2023-03-02T15:00:47.751Z,101588.94
2023-03-02T15:06:00.930Z,101596.28
2023-03-02T15:11:04.426Z,101609.03
2023-03-02T15:16:09.902Z,101603.47
2023-03-02T15:21:18.943Z,101619.84
2023-03-02T15:26:21.582Z,101623.41
2023-03-02T15:31:24.751Z,101634.63
2023-03-02T15:36:27.164Z,101628.69
2023-03-02T15:41:29.822Z,101624.25
2023-03-02T15:46:32.410Z,101620.66
2023-03-02T15:51:34.892Z,101629.81
2023-03-02T15:56:44.045Z,101618.28
2023-03-02T16:01:46.958Z,101632.84
2023-03-02T16:06:49.595Z,101635.50
2023-03-02T16:11:52.633Z,101635.91
2023-03-02T16:16:55.407Z,101630.13
2023-03-02T16:21:58.130Z,101617.94
2023-03-02T16:27:00.687Z,101617.66
2023-03-02T16:32:03.577Z,101622.78
2023-03-02T16:37:06.295Z,101619.47
2023-03-02T16:42:08.858Z,101625.44
2023-03-02T16:47:11.264Z,101616.28
2023-03-02T16:52:13.771Z,101629.28
2023-03-02T16:57:16.468Z,101639.00
2023-03-02T17:02:19.025Z,101636.50
2023-03-02T17:07:21.639Z,101644.28
2023-03-02T17:12:29.849Z,101651.50
2023-03-02T17:17:32.456Z,101637.88
2023-03-02T17:22:34.983Z,101644.44
2023-03-02T17:27:37.943Z,101638.84
2023-03-02T17:32:41.761Z,101659.81
2023-03-02T17:37:44.315Z,101645.53
2023-03-02T17:42:46.815Z,101639.84
2023-03-02T17:47:50.568Z,101648.16
2023-03-02T17:52:54.477Z,101649.97
2023-03-02T17:57:57.007Z,101654.53
2023-03-02T18:02:59.647Z,101643.56
2023-03-02T18:08:02.365Z,101653.97
2023-03-02T18:13:04.989Z,101658.13
2023-03-02T18:18:07.709Z,101663.28
2023-03-02T18:23:10.573Z,101666.03
2023-03-02T18:28:13.190Z,101643.59
2023-03-02T18:33:15.816Z,101637.75
2023-03-02T18:38:18.357Z,101650.78
2023-03-02T18:43:20.889Z,101665.63
2023-03-02T18:48:25.513Z,101666.88
2023-03-02T18:53:27.897Z,101668.22
2023-03-02T18:58:34.353Z,101656.31
2023-03-02T19:03:38.952Z,101660.50
2023-03-02T19:08:41.643Z,101678.31
2023-03-02T19:13:44.247Z,101646.50
2023-03-02T19:18:46.950Z,101669.56
2023-03-02T19:23:49.722Z,101672.97
2023-03-02T19:28:52.310Z,101678.06
2023-03-02T19:33:55.015Z,101675.59
2023-03-02T19:38:59.852Z,101664.88
2023-03-02T19:44:02.389Z,101683.75
2023-03-02T19:49:23.456Z,101669.09
2023-03-02T19:54:26.062Z,101671.84
2023-03-02T19:59:30.965Z,101676.28
2023-03-02T20:04:33.996Z,101691.28
2023-03-02T20:09:36.865Z,101689.13
2023-03-02T20:14:40.976Z,101694.53
2023-03-02T20:19:47.140Z,101692.00
2023-03-02T20:24:49.590Z,101708.03
2023-03-02T20:29:52.138Z,101709.53
2023-03-02T20:34:57.725Z,101704.84
2023-03-02T20:40:00.806Z,101697.63
2023-03-02T20:45:04.542Z,101703.91
2023-03-02T20:50:11.495Z,101697.69
2023-03-02T20:55:14.266Z,101695.34
2023-03-02T21:00:22.340Z,101693.44
2023-03-02T21:05:26.282Z,101698.59
2023-03-02T21:10:33.741Z,101685.81
2023-03-02T21:15:36.991Z,101688.19
2023-03-02T21:20:40.081Z,101673.38
2023-03-02T21:25:45.021Z,101676.44
2023-03-02T21:30:50.652Z,101677.41
2023-03-02T21:35:53.276Z,101679.06
2023-03-02T21:40:55.774Z,101671.72
2023-03-02T21:46:00.638Z,101670.03
2023-03-02T21:51:03.244Z,101672.84
2023-03-02T21:56:06.363Z,101657.78
2023-03-02T22:01:08.780Z,101678.34
2023-03-02T22:06:25.997Z,101691.25
2023-03-02T22:11:35.088Z,101693.19
2023-03-02T22:16:40.207Z,101665.06
2023-03-02T22:21:49.650Z,101681.94
2023-03-02T22:26:59.841Z,101684.22
2023-03-02T22:32:24.173Z,101675.75
2023-03-02T22:37:34.070Z,101678.22
2023-03-02T22:42:36.605Z,101684.59
2023-03-02T22:47:40.188Z,101676.41
2023-03-02T22:52:44.894Z,101679.91
2023-03-02T22:57:47.415Z,101670.34
2023-03-02T23:02:52.696Z,101653.69
2023-03-02T23:08:15.627Z,101666.31
2023-03-02T23:13:21.060Z,101669.91
2023-03-02T23:18:25.214Z,101665.19
2023-03-02T23:23:27.970Z,101678.94
2023-03-02T23:28:30.443Z,101666.19
2023-03-02T23:33:33.841Z,101664.22
2023-03-02T23:38:36.823Z,101651.31
2023-03-02T23:43:39.372Z,101654.94
2023-03-02T23:48:43.139Z,101655.38
2023-03-02T23:53:45.760Z,101639.84
2023-03-02T23:58:48.409Z,101644.28
